sensor_id;sensor_type;location;lat;lon;timestamp;temperature;humidity
42663;DHT22;44330;51.360;6.686;2023-02-12T00:00:31;7.70;91.40
42663;DHT22;44330;51.360;6.686;2023-02-12T00:02:56;7.70;91.40
42663;DHT22;44330;51.360;6.686;2023-02-12T00:05:22;7.70;91.40
42663;DHT22;44330;51.360;6.686;2023-02-12T00:07:47;7.60;91.50
42663;DHT22;44330;51.360;6.686;2023-02-12T00:10:13;7.60;91.60
42663;DHT22;44330;51.360;6.686;2023-02-12T00:12:39;7.60;91.60
42663;DHT22;44330;51.360;6.686;2023-02-12T00:15:05;7.60;91.70
42663;DHT22;44330;51.360;6.686;2023-02-12T00:17:30;7.60;91.70
42663;DHT22;44330;51.360;6.686;2023-02-12T00:19:56;7.70;91.90
42663;DHT22;44330;51.360;6.686;2023-02-12T00:22:22;7.60;91.90
42663;DHT22;44330;51.360;6.686;2023-02-12T00:24:47;7.60;92.10
42663;DHT22;44330;51.360;6.686;2023-02-12T00:27:13;7.60;92.00
42663;DHT22;44330;51.360;6.686;2023-02-12T00:29:38;7.60;91.90
42663;DHT22;44330;51.360;6.686;2023-02-12T00:32:04;7.60;91.90
42663;DHT22;44330;51.360;6.686;2023-02-12T00:34:30;7.60;91.80
42663;DHT22;44330;51.360;6.686;2023-02-12T00:36:56;7.60;91.90
42663;DHT22;44330;51.360;6.686;2023-02-12T00:39:21;7.50;91.90
42663;DHT22;44330;51.360;6.686;2023-02-12T00:41:47;7.60;92.00
42663;DHT22;44330;51.360;6.686;2023-02-12T00:44:12;7.50;91.90
42663;DHT22;44330;51.360;6.686;2023-02-12T00:46:38;7.50;92.00
42663;DHT22;44330;51.360;6.686;2023-02-12T00:49:03;7.50;92.00
42663;DHT22;44330;51.360;6.686;2023-02-12T00:51:29;7.50;92.00
42663;DHT22;44330;51.360;6.686;2023-02-12T00:53:54;7.50;92.00
42663;DHT22;44330;51.360;6.686;2023-02-12T00:56:20;7.50;92.00
42663;DHT22;44330;51.360;6.686;2023-02-12T00:58:46;7.50;92.10
42663;DHT22;44330;51.360;6.686;2023-02-12T01:01:11;7.50;92.10
42663;DHT22;44330;51.360;6.686;2023-02-12T01:03:37;7.50;92.10
42663;DHT22;44330;51.360;6.686;2023-02-12T01:06:03;7.50;92.10
42663;DHT22;44330;51.360;6.686;2023-02-12T01:08:30;7.60;92.10
42663;DHT22;44330;51.360;6.686;2023-02-12T01:10:59;7.50;92.10
42663;DHT22;44330;51.360;6.686;2023-02-12T01:13:26;7.50;92.10
42663;DHT22;44330;51.360;6.686;2023-02-12T01:16:08;7.50;92.10
42663;DHT22;44330;51.360;6.686;2023-02-12T01:18:36;7.50;92.10
42663;DHT22;44330;51.360;6.686;2023-02-12T01:21:11;7.40;92.00
42663;DHT22;44330;51.360;6.686;2023-02-12T01:23:37;7.50;92.00
42663;DHT22;44330;51.360;6.686;2023-02-12T01:26:02;7.40;91.90
42663;DHT22;44330;51.360;6.686;2023-02-12T01:28:29;7.40;92.00
42663;DHT22;44330;51.360;6.686;2023-02-12T01:30:54;7.40;92.00
42663;DHT22;44330;51.360;6.686;2023-02-12T01:33:20;7.40;92.00
42663;DHT22;44330;51.360;6.686;2023-02-12T01:35:45;7.50;92.10
42663;DHT22;44330;51.360;6.686;2023-02-12T01:38:11;7.40;92.10
42663;DHT22;44330;51.360;6.686;2023-02-12T01:40:37;7.40;92.10
42663;DHT22;44330;51.360;6.686;2023-02-12T01:43:03;7.40;92.10
42663;DHT22;44330;51.360;6.686;2023-02-12T01:45:43;7.40;92.10
42663;DHT22;44330;51.360;6.686;2023-02-12T01:48:11;7.40;92.10
42663;DHT22;44330;51.360;6.686;2023-02-12T01:50:37;7.40;92.20
42663;DHT22;44330;51.360;6.686;2023-02-12T01:53:03;7.40;92.20
42663;DHT22;44330;51.360;6.686;2023-02-12T01:55:28;7.40;92.10
42663;DHT22;44330;51.360;6.686;2023-02-12T01:57:55;7.40;92.20
42663;DHT22;44330;51.360;6.686;2023-02-12T02:00:22;7.40;92.40
42663;DHT22;44330;51.360;6.686;2023-02-12T02:02:52;7.40;92.20
42663;DHT22;44330;51.360;6.686;2023-02-12T02:05:32;7.30;92.10
42663;DHT22;44330;51.360;6.686;2023-02-12T02:07:59;7.30;92.20
42663;DHT22;44330;51.360;6.686;2023-02-12T02:10:25;7.30;92.10
42663;DHT22;44330;51.360;6.686;2023-02-12T02:12:50;7.30;92.10
42663;DHT22;44330;51.360;6.686;2023-02-12T02:15:35;7.30;92.20
42663;DHT22;44330;51.360;6.686;2023-02-12T02:18:09;7.30;92.20
42663;DHT22;44330;51.360;6.686;2023-02-12T02:21:07;7.30;92.20
42663;DHT22;44330;51.360;6.686;2023-02-12T02:27:04;7.30;92.20
42663;DHT22;44330;51.360;6.686;2023-02-12T02:32:23;7.30;92.20
42663;DHT22;44330;51.360;6.686;2023-02-12T02:35:02;7.30;92.20
42663;DHT22;44330;51.360;6.686;2023-02-12T02:37:35;7.30;92.20
42663;DHT22;44330;51.360;6.686;2023-02-12T02:42:57;7.20;92.20
42663;DHT22;44330;51.360;6.686;2023-02-12T02:48:01;7.20;92.20
42663;DHT22;44330;51.360;6.686;2023-02-12T02:50:29;7.20;92.20
42663;DHT22;44330;51.360;6.686;2023-02-12T02:53:07;7.20;92.20
42663;DHT22;44330;51.360;6.686;2023-02-12T02:55:38;7.20;92.20
42663;DHT22;44330;51.360;6.686;2023-02-12T02:58:20;7.20;92.20
42663;DHT22;44330;51.360;6.686;2023-02-12T03:01:00;7.20;92.20
42663;DHT22;44330;51.360;6.686;2023-02-12T03:03:35;7.10;92.20
42663;DHT22;44330;51.360;6.686;2023-02-12T03:06:16;7.20;92.20
42663;DHT22;44330;51.360;6.686;2023-02-12T03:08:51;7.20;92.20
42663;DHT22;44330;51.360;6.686;2023-02-12T03:11:19;7.10;92.20
42663;DHT22;44330;51.360;6.686;2023-02-12T03:16:31;7.10;92.20
42663;DHT22;44330;51.360;6.686;2023-02-12T03:19:14;7.10;92.20
42663;DHT22;44330;51.360;6.686;2023-02-12T03:21:49;7.00;92.30
42663;DHT22;44330;51.360;6.686;2023-02-12T03:24:22;7.00;92.30
42663;DHT22;44330;51.360;6.686;2023-02-12T03:26:53;7.00;92.30
42663;DHT22;44330;51.360;6.686;2023-02-12T03:29:20;7.00;92.20
42663;DHT22;44330;51.360;6.686;2023-02-12T03:37:34;6.80;92.20
42663;DHT22;44330;51.360;6.686;2023-02-12T03:40:14;6.80;92.30
42663;DHT22;44330;51.360;6.686;2023-02-12T03:48:23;6.80;92.60
42663;DHT22;44330;51.360;6.686;2023-02-12T03:51:04;6.80;92.60
42663;DHT22;44330;51.360;6.686;2023-02-12T03:53:35;6.80;92.60
42663;DHT22;44330;51.360;6.686;2023-02-12T03:56:09;6.80;92.70
42663;DHT22;44330;51.360;6.686;2023-02-12T03:58:37;6.80;92.70
42663;DHT22;44330;51.360;6.686;2023-02-12T04:01:05;6.70;92.70
42663;DHT22;44330;51.360;6.686;2023-02-12T04:03:32;6.70;92.80
42663;DHT22;44330;51.360;6.686;2023-02-12T04:05:57;6.70;92.80
42663;DHT22;44330;51.360;6.686;2023-02-12T04:08:23;6.70;92.90
42663;DHT22;44330;51.360;6.686;2023-02-12T04:16:37;6.70;93.00
42663;DHT22;44330;51.360;6.686;2023-02-12T04:19:05;6.70;93.10
42663;DHT22;44330;51.360;6.686;2023-02-12T04:21:42;6.70;93.10
42663;DHT22;44330;51.360;6.686;2023-02-12T04:26:54;6.70;93.20
42663;DHT22;44330;51.360;6.686;2023-02-12T04:29:34;6.70;93.30
42663;DHT22;44330;51.360;6.686;2023-02-12T04:32:11;6.70;93.30
42663;DHT22;44330;51.360;6.686;2023-02-12T04:34:49;6.70;93.30
42663;DHT22;44330;51.360;6.686;2023-02-12T04:37:33;6.70;93.40
42663;DHT22;44330;51.360;6.686;2023-02-12T04:40:07;6.70;93.40
42663;DHT22;44330;51.360;6.686;2023-02-12T04:42:44;6.70;93.40
42663;DHT22;44330;51.360;6.686;2023-02-12T04:45:12;6.70;93.50
42663;DHT22;44330;51.360;6.686;2023-02-12T04:47:38;6.70;93.50
42663;DHT22;44330;51.360;6.686;2023-02-12T04:50:04;6.70;93.50
42663;DHT22;44330;51.360;6.686;2023-02-12T04:52:30;6.70;93.50
42663;DHT22;44330;51.360;6.686;2023-02-12T04:54:55;6.70;93.50
42663;DHT22;44330;51.360;6.686;2023-02-12T04:57:21;6.70;93.50
42663;DHT22;44330;51.360;6.686;2023-02-12T04:59:46;6.70;93.50
42663;DHT22;44330;51.360;6.686;2023-02-12T05:02:12;6.70;93.60
42663;DHT22;44330;51.360;6.686;2023-02-12T05:04:37;6.70;93.50
42663;DHT22;44330;51.360;6.686;2023-02-12T05:07:03;6.70;93.50
42663;DHT22;44330;51.360;6.686;2023-02-12T05:09:28;6.70;93.50
42663;DHT22;44330;51.360;6.686;2023-02-12T05:11:54;6.70;93.50
42663;DHT22;44330;51.360;6.686;2023-02-12T05:14:19;6.70;93.60
42663;DHT22;44330;51.360;6.686;2023-02-12T05:16:48;6.70;93.60
42663;DHT22;44330;51.360;6.686;2023-02-12T05:19:13;6.70;93.60
42663;DHT22;44330;51.360;6.686;2023-02-12T05:21:39;6.60;93.60
42663;DHT22;44330;51.360;6.686;2023-02-12T05:24:05;6.60;93.60
42663;DHT22;44330;51.360;6.686;2023-02-12T05:26:30;6.60;93.70
42663;DHT22;44330;51.360;6.686;2023-02-12T05:28:56;6.70;93.70
42663;DHT22;44330;51.360;6.686;2023-02-12T05:31:22;6.60;93.70
42663;DHT22;44330;51.360;6.686;2023-02-12T05:33:48;6.60;93.70
42663;DHT22;44330;51.360;6.686;2023-02-12T05:36:16;6.70;93.80
42663;DHT22;44330;51.360;6.686;2023-02-12T05:38:43;6.70;93.80
42663;DHT22;44330;51.360;6.686;2023-02-12T05:41:15;6.70;93.80
42663;DHT22;44330;51.360;6.686;2023-02-12T05:43:41;6.70;93.90
42663;DHT22;44330;51.360;6.686;2023-02-12T05:46:07;6.70;93.90
42663;DHT22;44330;51.360;6.686;2023-02-12T05:48:33;6.70;93.90
42663;DHT22;44330;51.360;6.686;2023-02-12T05:51:04;6.70;93.90
42663;DHT22;44330;51.360;6.686;2023-02-12T05:53:30;6.70;93.90
42663;DHT22;44330;51.360;6.686;2023-02-12T05:56:09;6.60;94.10
42663;DHT22;44330;51.360;6.686;2023-02-12T05:58:35;6.70;93.90
42663;DHT22;44330;51.360;6.686;2023-02-12T06:01:01;6.70;94.00
42663;DHT22;44330;51.360;6.686;2023-02-12T06:03:27;6.60;94.00
42663;DHT22;44330;51.360;6.686;2023-02-12T06:05:52;6.70;94.00
42663;DHT22;44330;51.360;6.686;2023-02-12T06:08:18;6.60;94.00
42663;DHT22;44330;51.360;6.686;2023-02-12T06:10:44;6.60;94.10
42663;DHT22;44330;51.360;6.686;2023-02-12T06:13:09;6.70;94.10
42663;DHT22;44330;51.360;6.686;2023-02-12T06:15:36;6.60;94.10
42663;DHT22;44330;51.360;6.686;2023-02-12T06:18:01;6.60;94.10
42663;DHT22;44330;51.360;6.686;2023-02-12T06:20:27;6.60;94.20
42663;DHT22;44330;51.360;6.686;2023-02-12T06:22:53;6.60;94.20
42663;DHT22;44330;51.360;6.686;2023-02-12T06:25:21;6.60;94.20
42663;DHT22;44330;51.360;6.686;2023-02-12T06:27:46;6.60;94.20
42663;DHT22;44330;51.360;6.686;2023-02-12T06:30:12;6.60;94.30
42663;DHT22;44330;51.360;6.686;2023-02-12T06:32:38;6.60;94.30
42663;DHT22;44330;51.360;6.686;2023-02-12T06:35:04;6.60;94.30
42663;DHT22;44330;51.360;6.686;2023-02-12T06:37:29;6.60;94.30
42663;DHT22;44330;51.360;6.686;2023-02-12T06:39:57;6.60;94.30
42663;DHT22;44330;51.360;6.686;2023-02-12T06:42:22;6.60;94.40
42663;DHT22;44330;51.360;6.686;2023-02-12T06:44:48;6.60;94.30
42663;DHT22;44330;51.360;6.686;2023-02-12T06:47:13;6.60;94.40
42663;DHT22;44330;51.360;6.686;2023-02-12T06:49:39;6.70;94.40
42663;DHT22;44330;51.360;6.686;2023-02-12T06:52:04;6.60;94.40
42663;DHT22;44330;51.360;6.686;2023-02-12T06:54:30;6.70;94.40
42663;DHT22;44330;51.360;6.686;2023-02-12T06:56:55;6.60;94.30
42663;DHT22;44330;51.360;6.686;2023-02-12T06:59:21;6.60;94.30
42663;DHT22;44330;51.360;6.686;2023-02-12T07:01:46;6.60;94.40
42663;DHT22;44330;51.360;6.686;2023-02-12T07:04:12;6.60;94.40
42663;DHT22;44330;51.360;6.686;2023-02-12T07:06:38;6.60;94.40
42663;DHT22;44330;51.360;6.686;2023-02-12T07:09:04;6.60;94.40
42663;DHT22;44330;51.360;6.686;2023-02-12T07:11:32;6.70;94.40
42663;DHT22;44330;51.360;6.686;2023-02-12T07:13:58;6.60;94.40
42663;DHT22;44330;51.360;6.686;2023-02-12T07:16:24;6.70;94.40
42663;DHT22;44330;51.360;6.686;2023-02-12T07:18:50;6.70;94.40
42663;DHT22;44330;51.360;6.686;2023-02-12T07:21:16;6.70;94.40
42663;DHT22;44330;51.360;6.686;2023-02-12T07:23:49;6.70;94.40
42663;DHT22;44330;51.360;6.686;2023-02-12T07:26:15;6.70;94.40
42663;DHT22;44330;51.360;6.686;2023-02-12T07:28:41;6.70;94.40
42663;DHT22;44330;51.360;6.686;2023-02-12T07:31:17;6.70;94.40
42663;DHT22;44330;51.360;6.686;2023-02-12T07:33:44;6.80;94.50
42663;DHT22;44330;51.360;6.686;2023-02-12T07:36:12;6.80;94.50
42663;DHT22;44330;51.360;6.686;2023-02-12T07:38:39;6.80;94.50
42663;DHT22;44330;51.360;6.686;2023-02-12T07:41:07;6.80;94.70
42663;DHT22;44330;51.360;6.686;2023-02-12T07:43:37;6.80;94.50
42663;DHT22;44330;51.360;6.686;2023-02-12T07:46:25;6.80;94.50
42663;DHT22;44330;51.360;6.686;2023-02-12T07:48:55;6.90;94.50
42663;DHT22;44330;51.360;6.686;2023-02-12T07:51:21;6.80;94.60
42663;DHT22;44330;51.360;6.686;2023-02-12T07:53:47;6.90;94.60
42663;DHT22;44330;51.360;6.686;2023-02-12T07:56:25;6.90;94.60
42663;DHT22;44330;51.360;6.686;2023-02-12T07:58:59;6.90;94.70
42663;DHT22;44330;51.360;6.686;2023-02-12T08:01:36;6.90;94.70
42663;DHT22;44330;51.360;6.686;2023-02-12T08:04:06;6.90;94.70
42663;DHT22;44330;51.360;6.686;2023-02-12T08:06:36;7.00;94.70
42663;DHT22;44330;51.360;6.686;2023-02-12T08:09:05;7.00;94.80
42663;DHT22;44330;51.360;6.686;2023-02-12T08:11:32;7.00;94.80
42663;DHT22;44330;51.360;6.686;2023-02-12T08:13:59;7.00;94.80
42663;DHT22;44330;51.360;6.686;2023-02-12T08:16:26;7.10;94.80
42663;DHT22;44330;51.360;6.686;2023-02-12T08:18:52;7.10;94.80
42663;DHT22;44330;51.360;6.686;2023-02-12T08:21:20;7.20;94.90
42663;DHT22;44330;51.360;6.686;2023-02-12T08:23:47;7.20;94.90
42663;DHT22;44330;51.360;6.686;2023-02-12T08:26:24;7.20;94.80
42663;DHT22;44330;51.360;6.686;2023-02-12T08:28:56;7.30;94.80
42663;DHT22;44330;51.360;6.686;2023-02-12T08:31:24;7.30;94.80
42663;DHT22;44330;51.360;6.686;2023-02-12T08:33:51;7.40;94.80
42663;DHT22;44330;51.360;6.686;2023-02-12T08:36:23;7.40;94.80
42663;DHT22;44330;51.360;6.686;2023-02-12T08:38:50;7.50;94.80
42663;DHT22;44330;51.360;6.686;2023-02-12T08:41:24;7.50;94.80
42663;DHT22;44330;51.360;6.686;2023-02-12T08:43:59;7.60;95.00
42663;DHT22;44330;51.360;6.686;2023-02-12T08:46:32;7.70;94.70
42663;DHT22;44330;51.360;6.686;2023-02-12T08:49:01;7.70;94.60
42663;DHT22;44330;51.360;6.686;2023-02-12T08:51:29;7.70;94.60
42663;DHT22;44330;51.360;6.686;2023-02-12T08:53:58;7.80;94.50
42663;DHT22;44330;51.360;6.686;2023-02-12T08:56:25;7.80;94.50
42663;DHT22;44330;51.360;6.686;2023-02-12T08:58:51;7.90;94.40
42663;DHT22;44330;51.360;6.686;2023-02-12T09:01:19;7.90;94.30
42663;DHT22;44330;51.360;6.686;2023-02-12T09:03:46;8.00;94.30
42663;DHT22;44330;51.360;6.686;2023-02-12T09:06:12;8.10;94.20
42663;DHT22;44330;51.360;6.686;2023-02-12T09:08:39;8.20;94.10
42663;DHT22;44330;51.360;6.686;2023-02-12T09:11:09;8.20;94.00
42663;DHT22;44330;51.360;6.686;2023-02-12T09:13:38;8.30;93.90
42663;DHT22;44330;51.360;6.686;2023-02-12T09:16:05;8.40;93.60
42663;DHT22;44330;51.360;6.686;2023-02-12T09:18:32;8.40;93.30
42663;DHT22;44330;51.360;6.686;2023-02-12T09:21:09;8.50;93.00
42663;DHT22;44330;51.360;6.686;2023-02-12T09:23:35;8.50;92.70
42663;DHT22;44330;51.360;6.686;2023-02-12T09:26:06;8.60;92.40
42663;DHT22;44330;51.360;6.686;2023-02-12T09:28:33;8.70;92.00
42663;DHT22;44330;51.360;6.686;2023-02-12T09:31:03;8.70;91.80
42663;DHT22;44330;51.360;6.686;2023-02-12T09:33:28;8.80;91.30
42663;DHT22;44330;51.360;6.686;2023-02-12T09:35:54;8.80;90.60
42663;DHT22;44330;51.360;6.686;2023-02-12T09:38:19;8.90;90.60
42663;DHT22;44330;51.360;6.686;2023-02-12T09:49:54;9.20;87.00
42663;DHT22;44330;51.360;6.686;2023-02-12T09:52:21;9.20;84.80
42663;DHT22;44330;51.360;6.686;2023-02-12T09:54:48;9.30;84.50
42663;DHT22;44330;51.360;6.686;2023-02-12T09:57:29;9.40;81.70
42663;DHT22;44330;51.360;6.686;2023-02-12T10:00:17;9.50;81.20
42663;DHT22;44330;51.360;6.686;2023-02-12T10:02:43;9.50;80.20
42663;DHT22;44330;51.360;6.686;2023-02-12T10:05:19;9.60;80.00
42663;DHT22;44330;51.360;6.686;2023-02-12T10:10:58;9.70;69.60
42663;DHT22;44330;51.360;6.686;2023-02-12T10:20:01;9.90;58.30
42663;DHT22;44330;51.360;6.686;2023-02-12T10:27:44;10.20;52.50
42663;DHT22;44330;51.360;6.686;2023-02-12T10:30:30;10.20;48.40
42663;DHT22;44330;51.360;6.686;2023-02-12T10:33:03;10.30;39.50
42663;DHT22;44330;51.360;6.686;2023-02-12T10:35:30;10.30;43.00
42663;DHT22;44330;51.360;6.686;2023-02-12T10:38:02;10.30;34.70
42663;DHT22;44330;51.360;6.686;2023-02-12T10:40:31;10.10;39.90
42663;DHT22;44330;51.360;6.686;2023-02-12T10:42:59;10.20;40.10
42663;DHT22;44330;51.360;6.686;2023-02-12T10:45:31;10.20;39.90
42663;DHT22;44330;51.360;6.686;2023-02-12T10:53:43;10.50;24.60
42663;DHT22;44330;51.360;6.686;2023-02-12T10:58:50;10.60;26.80
42663;DHT22;44330;51.360;6.686;2023-02-12T11:01:26;10.50;27.80
42663;DHT22;44330;51.360;6.686;2023-02-12T11:03:54;10.60;34.30
42663;DHT22;44330;51.360;6.686;2023-02-12T11:06:23;10.70;38.10
42663;DHT22;44330;51.360;6.686;2023-02-12T11:08:50;10.80;34.50
42663;DHT22;44330;51.360;6.686;2023-02-12T11:11:28;10.80;34.50
42663;DHT22;44330;51.360;6.686;2023-02-12T11:16:34;10.90;32.50
42663;DHT22;44330;51.360;6.686;2023-02-12T11:19:28;11.00;27.00
42663;DHT22;44330;51.360;6.686;2023-02-12T11:22:11;11.10;27.50
42663;DHT22;44330;51.360;6.686;2023-02-12T11:24:44;10.90;16.20
42663;DHT22;44330;51.360;6.686;2023-02-12T11:27:24;10.80;19.60
42663;DHT22;44330;51.360;6.686;2023-02-12T11:30:16;10.70;23.00
42663;DHT22;44330;51.360;6.686;2023-02-12T11:32:41;10.80;26.40
42663;DHT22;44330;51.360;6.686;2023-02-12T11:35:14;10.80;11.30
42663;DHT22;44330;51.360;6.686;2023-02-12T11:37:43;10.80;6.40
42663;DHT22;44330;51.360;6.686;2023-02-12T11:40:35;10.70;1.00
42663;DHT22;44330;51.360;6.686;2023-02-12T11:43:05;10.80;16.70
42663;DHT22;44330;51.360;6.686;2023-02-12T11:45:41;11.00;17.50
42663;DHT22;44330;51.360;6.686;2023-02-12T11:48:31;11.10;14.20
42663;DHT22;44330;51.360;6.686;2023-02-12T11:51:01;11.00;4.20
42663;DHT22;44330;51.360;6.686;2023-02-12T11:53:37;11.10;8.70
42663;DHT22;44330;51.360;6.686;2023-02-12T11:56:07;11.20;11.10
42663;DHT22;44330;51.360;6.686;2023-02-12T11:58:33;11.20;1.00
42663;DHT22;44330;51.360;6.686;2023-02-12T12:03:59;11.30;1.00
42663;DHT22;44330;51.360;6.686;2023-02-12T12:06:36;11.30;3.50
42663;DHT22;44330;51.360;6.686;2023-02-12T12:09:24;11.30;1.00
42663;DHT22;44330;51.360;6.686;2023-02-12T12:14:26;11.30;1.00
42663;DHT22;44330;51.360;6.686;2023-02-12T12:25:25;11.00;1.00
42663;DHT22;44330;51.360;6.686;2023-02-12T12:33:46;10.70;1.00
42663;DHT22;44330;51.360;6.686;2023-02-12T12:39:35;10.90;1.00
42663;DHT22;44330;51.360;6.686;2023-02-12T12:42:42;10.90;1.00
42663;DHT22;44330;51.360;6.686;2023-02-12T12:54:44;11.00;1.00
42663;DHT22;44330;51.360;6.686;2023-02-12T13:00:40;10.90;1.00
42663;DHT22;44330;51.360;6.686;2023-02-12T13:08:48;11.10;1.00
42663;DHT22;44330;51.360;6.686;2023-02-12T13:11:38;11.10;1.00
42663;DHT22;44330;51.360;6.686;2023-02-12T13:14:58;10.80;1.00
42663;DHT22;44330;51.360;6.686;2023-02-12T13:20:18;10.70;1.00
42663;DHT22;44330;51.360;6.686;2023-02-12T13:27:50;11.10;1.00
42663;DHT22;44330;51.360;6.686;2023-02-12T13:30:32;11.20;1.00
42663;DHT22;44330;51.360;6.686;2023-02-12T13:33:27;11.30;1.00
42663;DHT22;44330;51.360;6.686;2023-02-12T13:35:59;11.40;1.00
42663;DHT22;44330;51.360;6.686;2023-02-12T13:38:37;11.40;1.00
42663;DHT22;44330;51.360;6.686;2023-02-12T13:41:09;11.40;1.00
42663;DHT22;44330;51.360;6.686;2023-02-12T13:43:45;11.50;1.00
42663;DHT22;44330;51.360;6.686;2023-02-12T13:57:12;11.30;1.00
42663;DHT22;44330;51.360;6.686;2023-02-12T13:59:49;11.40;1.00
42663;DHT22;44330;51.360;6.686;2023-02-12T14:05:02;11.20;1.00
42663;DHT22;44330;51.360;6.686;2023-02-12T14:07:45;11.00;1.00
42663;DHT22;44330;51.360;6.686;2023-02-12T14:10:33;11.00;1.00
42663;DHT22;44330;51.360;6.686;2023-02-12T14:13:14;11.00;1.00
42663;DHT22;44330;51.360;6.686;2023-02-12T14:15:42;10.90;1.00
42663;DHT22;44330;51.360;6.686;2023-02-12T14:18:44;11.00;1.00
42663;DHT22;44330;51.360;6.686;2023-02-12T14:23:36;10.80;1.00
42663;DHT22;44330;51.360;6.686;2023-02-12T14:29:00;10.70;1.00
42663;DHT22;44330;51.360;6.686;2023-02-12T14:38:59;10.70;1.00
42663;DHT22;44330;51.360;6.686;2023-02-12T14:49:58;10.50;1.00
42663;DHT22;44330;51.360;6.686;2023-02-12T14:52:28;10.50;1.00
42663;DHT22;44330;51.360;6.686;2023-02-12T14:55:01;10.50;1.00
42663;DHT22;44330;51.360;6.686;2023-02-12T14:57:36;10.50;1.00
42663;DHT22;44330;51.360;6.686;2023-02-12T15:05:26;10.40;1.00
42663;DHT22;44330;51.360;6.686;2023-02-12T15:07:59;10.40;1.00
42663;DHT22;44330;51.360;6.686;2023-02-12T15:13:26;10.20;1.00
42663;DHT22;44330;51.360;6.686;2023-02-12T15:16:06;10.10;1.00
42663;DHT22;44330;51.360;6.686;2023-02-12T15:19:28;10.20;1.00
42663;DHT22;44330;51.360;6.686;2023-02-12T15:21:34;10.20;1.00
42663;DHT22;44330;51.360;6.686;2023-02-12T15:26:38;10.20;1.00
42663;DHT22;44330;51.360;6.686;2023-02-12T15:29:04;10.20;1.00
42663;DHT22;44330;51.360;6.686;2023-02-12T15:31:31;10.20;1.00
42663;DHT22;44330;51.360;6.686;2023-02-12T15:33:59;10.20;1.00
42663;DHT22;44330;51.360;6.686;2023-02-12T15:36:27;10.10;1.00
42663;DHT22;44330;51.360;6.686;2023-02-12T15:38:58;10.10;1.00
42663;DHT22;44330;51.360;6.686;2023-02-12T15:41:39;10.20;1.00
42663;DHT22;44330;51.360;6.686;2023-02-12T15:44:29;10.20;1.00
42663;DHT22;44330;51.360;6.686;2023-02-12T15:47:14;10.20;1.00
42663;DHT22;44330;51.360;6.686;2023-02-12T15:49:42;10.20;1.00
42663;DHT22;44330;51.360;6.686;2023-02-12T15:52:15;10.20;1.00
42663;DHT22;44330;51.360;6.686;2023-02-12T15:54:44;10.30;1.00
42663;DHT22;44330;51.360;6.686;2023-02-12T15:57:13;10.30;1.00
42663;DHT22;44330;51.360;6.686;2023-02-12T15:59:51;10.30;1.00
42663;DHT22;44330;51.360;6.686;2023-02-12T16:02:29;10.30;1.00
42663;DHT22;44330;51.360;6.686;2023-02-12T16:04:58;10.30;2.70
42663;DHT22;44330;51.360;6.686;2023-02-12T16:07:26;10.30;2.50
42663;DHT22;44330;51.360;6.686;2023-02-12T16:09:53;10.30;3.00
42663;DHT22;44330;51.360;6.686;2023-02-12T16:12:22;10.30;4.30
42663;DHT22;44330;51.360;6.686;2023-02-12T16:14:53;10.30;3.90
42663;DHT22;44330;51.360;6.686;2023-02-12T16:17:33;10.20;4.20
42663;DHT22;44330;51.360;6.686;2023-02-12T16:20:01;10.20;4.60
42663;DHT22;44330;51.360;6.686;2023-02-12T16:22:40;10.20;4.40
42663;DHT22;44330;51.360;6.686;2023-02-12T16:25:16;10.10;5.80
42663;DHT22;44330;51.360;6.686;2023-02-12T16:30:35;10.10;8.70
42663;DHT22;44330;51.360;6.686;2023-02-12T16:33:04;10.00;10.40
42663;DHT22;44330;51.360;6.686;2023-02-12T16:35:33;10.00;10.70
42663;DHT22;44330;51.360;6.686;2023-02-12T16:46:24;9.80;9.20
42663;DHT22;44330;51.360;6.686;2023-02-12T16:48:51;9.80;10.80
42663;DHT22;44330;51.360;6.686;2023-02-12T16:51:25;9.70;12.20
42663;DHT22;44330;51.360;6.686;2023-02-12T16:53:51;9.70;13.30
42663;DHT22;44330;51.360;6.686;2023-02-12T16:56:19;9.70;13.80
42663;DHT22;44330;51.360;6.686;2023-02-12T16:58:48;9.70;14.80
42663;DHT22;44330;51.360;6.686;2023-02-12T17:01:16;9.70;15.80
42663;DHT22;44330;51.360;6.686;2023-02-12T17:03:43;9.70;16.40
42663;DHT22;44330;51.360;6.686;2023-02-12T17:06:12;9.70;17.30
42663;DHT22;44330;51.360;6.686;2023-02-12T17:08:38;9.70;19.10
42663;DHT22;44330;51.360;6.686;2023-02-12T17:11:03;9.60;21.30
42663;DHT22;44330;51.360;6.686;2023-02-12T17:13:29;9.60;23.30
42663;DHT22;44330;51.360;6.686;2023-02-12T17:15:57;9.60;24.90
42663;DHT22;44330;51.360;6.686;2023-02-12T17:18:30;9.60;26.40
42663;DHT22;44330;51.360;6.686;2023-02-12T17:21:04;9.50;29.10
42663;DHT22;44330;51.360;6.686;2023-02-12T17:23:30;9.50;30.00
42663;DHT22;44330;51.360;6.686;2023-02-12T17:25:56;9.40;26.10
42663;DHT22;44330;51.360;6.686;2023-02-12T17:28:22;9.40;26.70
42663;DHT22;44330;51.360;6.686;2023-02-12T17:30:50;9.40;26.40
42663;DHT22;44330;51.360;6.686;2023-02-12T17:33:15;9.40;27.20
42663;DHT22;44330;51.360;6.686;2023-02-12T17:35:41;9.30;29.20
42663;DHT22;44330;51.360;6.686;2023-02-12T17:38:07;9.30;29.90
42663;DHT22;44330;51.360;6.686;2023-02-12T17:40:42;9.40;30.00
42663;DHT22;44330;51.360;6.686;2023-02-12T17:43:07;9.40;30.10
42663;DHT22;44330;51.360;6.686;2023-02-12T17:45:33;9.30;30.90
42663;DHT22;44330;51.360;6.686;2023-02-12T17:47:59;9.30;31.30
42663;DHT22;44330;51.360;6.686;2023-02-12T17:50:26;9.30;32.30
42663;DHT22;44330;51.360;6.686;2023-02-12T17:52:51;9.30;32.90
42663;DHT22;44330;51.360;6.686;2023-02-12T17:55:17;9.20;33.80
42663;DHT22;44330;51.360;6.686;2023-02-12T17:57:43;9.20;34.30
42663;DHT22;44330;51.360;6.686;2023-02-12T18:00:10;9.20;35.00
42663;DHT22;44330;51.360;6.686;2023-02-12T18:02:37;9.30;35.80
42663;DHT22;44330;51.360;6.686;2023-02-12T18:05:03;9.30;35.40
42663;DHT22;44330;51.360;6.686;2023-02-12T18:07:32;9.30;35.70
42663;DHT22;44330;51.360;6.686;2023-02-12T18:09:57;9.30;33.40
42663;DHT22;44330;51.360;6.686;2023-02-12T18:12:23;9.30;33.70
42663;DHT22;44330;51.360;6.686;2023-02-12T18:14:48;9.40;34.50
42663;DHT22;44330;51.360;6.686;2023-02-12T18:17:14;9.40;33.60
42663;DHT22;44330;51.360;6.686;2023-02-12T18:19:39;9.40;30.70
42663;DHT22;44330;51.360;6.686;2023-02-12T18:22:05;9.40;30.60
42663;DHT22;44330;51.360;6.686;2023-02-12T18:24:31;9.40;30.70
42663;DHT22;44330;51.360;6.686;2023-02-12T18:26:58;9.50;30.40
42663;DHT22;44330;51.360;6.686;2023-02-12T18:29:24;9.50;27.00
42663;DHT22;44330;51.360;6.686;2023-02-12T18:31:49;9.60;25.90
42663;DHT22;44330;51.360;6.686;2023-02-12T18:34:15;9.70;23.00
42663;DHT22;44330;51.360;6.686;2023-02-12T18:36:41;9.70;22.80
42663;DHT22;44330;51.360;6.686;2023-02-12T18:39:09;9.80;21.90
42663;DHT22;44330;51.360;6.686;2023-02-12T18:41:40;9.80;17.90
42663;DHT22;44330;51.360;6.686;2023-02-12T18:44:06;9.90;17.20
42663;DHT22;44330;51.360;6.686;2023-02-12T18:46:31;9.80;17.90
42663;DHT22;44330;51.360;6.686;2023-02-12T18:48:58;9.80;19.20
42663;DHT22;44330;51.360;6.686;2023-02-12T18:51:28;9.80;19.70
42663;DHT22;44330;51.360;6.686;2023-02-12T18:53:55;9.80;19.60
42663;DHT22;44330;51.360;6.686;2023-02-12T18:56:22;9.80;20.80
42663;DHT22;44330;51.360;6.686;2023-02-12T18:58:47;9.70;20.80